createdAt,value
2022-08-20T00:00:08.649Z,7.25
2022-08-20T00:02:42.043Z,7.28
2022-08-20T00:05:11.434Z,7.35
2022-08-20T00:07:40.146Z,8.05
2022-08-20T00:10:10.569Z,7.85
2022-08-20T00:12:44.876Z,6.78
2022-08-20T00:15:16.217Z,7.78
2022-08-20T00:17:45.000Z,7.43
2022-08-20T00:20:16.415Z,7.85
2022-08-20T00:22:45.393Z,8.38
2022-08-20T00:25:15.073Z,7.13
2022-08-20T00:27:43.742Z,7.75
2022-08-20T00:30:16.930Z,6.35
2022-08-20T00:32:48.196Z,7.28
2022-08-20T00:35:18.543Z,7.10
2022-08-20T00:37:47.047Z,7.38
2022-08-20T00:40:23.277Z,7.03
2022-08-20T00:42:55.453Z,6.43
2022-08-20T00:45:26.412Z,7.57
2022-08-20T00:47:55.919Z,6.05
2022-08-20T00:50:32.706Z,6.40
2022-08-20T00:53:03.354Z,5.45
2022-08-20T00:55:34.309Z,5.55
2022-08-20T00:58:09.527Z,5.22
2022-08-20T01:00:44.667Z,6.53
2022-08-20T01:03:18.451Z,6.40
2022-08-20T01:05:50.708Z,7.57
2022-08-20T01:08:24.798Z,7.00
2022-08-20T01:11:06.297Z,6.97
2022-08-20T01:13:38.626Z,7.13
2022-08-20T01:18:48.186Z,7.82
2022-08-20T01:21:21.062Z,6.80
2022-08-20T01:24:00.629Z,6.88
2022-08-20T01:26:35.865Z,6.85
2022-08-20T01:29:09.162Z,6.90
2022-08-20T01:31:40.829Z,6.82
2022-08-20T01:34:14.374Z,6.22
2022-08-20T01:36:48.040Z,6.65
2022-08-20T01:39:20.307Z,6.45
2022-08-20T01:42:01.092Z,6.10
2022-08-20T01:44:31.003Z,6.25
2022-08-20T01:47:09.032Z,7.30
2022-08-20T01:49:44.027Z,7.75
2022-08-20T01:52:19.826Z,7.82
2022-08-20T01:54:48.340Z,8.25
2022-08-20T01:57:22.369Z,10.40
2022-08-20T01:59:51.833Z,11.25
2022-08-20T02:02:20.344Z,13.52
2022-08-20T02:04:49.046Z,11.95
2022-08-20T02:07:21.670Z,11.88
2022-08-20T02:09:51.733Z,12.65
2022-08-20T02:12:21.893Z,15.23
2022-08-20T02:14:53.210Z,14.85
2022-08-20T02:17:26.989Z,15.75
2022-08-20T02:19:59.384Z,16.58
2022-08-20T02:22:38.402Z,17.27
2022-08-20T02:25:10.744Z,17.65
2022-08-20T02:27:44.161Z,17.75
2022-08-20T02:30:27.496Z,18.30
2022-08-20T02:32:57.449Z,18.65
2022-08-20T02:35:27.081Z,17.50
2022-08-20T02:37:56.328Z,18.95
2022-08-20T02:40:30.869Z,18.70
2022-08-20T02:43:02.899Z,18.55
2022-08-20T02:45:43.697Z,20.10
2022-08-20T02:48:21.419Z,19.42
2022-08-20T02:50:53.378Z,19.95
2022-08-20T02:53:22.985Z,20.75
2022-08-20T02:55:51.896Z,20.85
2022-08-20T02:58:23.068Z,20.75
2022-08-20T03:00:52.316Z,20.80
2022-08-20T03:03:22.833Z,21.65
2022-08-20T03:05:58.925Z,21.33
2022-08-20T03:08:29.941Z,20.25
2022-08-20T03:10:59.313Z,23.30
2022-08-20T03:13:29.575Z,22.33
2022-08-20T03:16:02.334Z,22.73
2022-08-20T03:18:35.633Z,21.83
2022-08-20T03:21:04.380Z,21.40
2022-08-20T03:23:36.059Z,22.38
2022-08-20T03:26:11.730Z,23.52
2022-08-20T03:28:42.752Z,22.20
2022-08-20T03:31:15.289Z,22.83
2022-08-20T03:33:52.942Z,23.55
2022-08-20T03:36:28.602Z,23.17
2022-08-20T03:38:59.050Z,22.98
2022-08-20T03:41:28.824Z,22.92
2022-08-20T03:43:58.739Z,22.35
2022-08-20T03:46:27.346Z,21.02
2022-08-20T03:48:59.666Z,24.40
2022-08-20T03:51:30.234Z,23.80
2022-08-20T03:53:59.443Z,24.17
2022-08-20T03:56:28.563Z,27.30
2022-08-20T03:58:58.677Z,24.70
2022-08-20T04:01:45.548Z,27.90
2022-08-20T04:04:15.296Z,24.80
2022-08-20T04:06:46.979Z,23.17
2022-08-20T04:09:15.676Z,23.83
2022-08-20T04:11:44.573Z,22.90
2022-08-20T04:14:18.706Z,24.17
2022-08-20T04:16:49.323Z,23.70
2022-08-20T04:19:18.477Z,22.90
2022-08-20T04:21:48.446Z,22.48
2022-08-20T04:24:22.054Z,20.92
2022-08-20T04:26:56.400Z,22.30
2022-08-20T04:29:32.102Z,22.63
2022-08-20T04:32:05.655Z,21.15
2022-08-20T04:34:37.040Z,21.00
2022-08-20T04:37:06.439Z,21.65
2022-08-20T04:40:06.675Z,18.98
2022-08-20T04:42:37.376Z,19.55
2022-08-20T04:47:38.624Z,18.60
2022-08-20T04:50:11.842Z,20.15
2022-08-20T04:52:40.233Z,18.98
2022-08-20T04:55:10.501Z,19.25
2022-08-20T04:57:39.386Z,19.42
2022-08-20T05:00:16.032Z,21.13
2022-08-20T05:02:45.501Z,18.50
2022-08-20T05:05:14.785Z,18.50
2022-08-20T05:07:45.975Z,17.80
2022-08-20T05:10:17.314Z,18.33
2022-08-20T05:12:56.464Z,18.50
2022-08-20T05:15:27.111Z,16.88
2022-08-20T05:18:02.559Z,16.95
2022-08-20T05:20:34.306Z,18.65
2022-08-20T05:23:04.318Z,17.95
2022-08-20T05:25:32.919Z,17.85
2022-08-20T05:28:09.489Z,18.45
2022-08-20T05:30:41.209Z,17.63
2022-08-20T05:33:11.566Z,18.60
2022-08-20T05:35:41.210Z,18.48
2022-08-20T05:38:14.536Z,18.35
2022-08-20T05:40:44.368Z,19.45
2022-08-20T05:43:13.052Z,19.25
2022-08-20T05:45:46.371Z,22.67
2022-08-20T05:48:18.626Z,21.40
2022-08-20T05:50:50.578Z,19.98
2022-08-20T05:53:20.298Z,21.52
2022-08-20T05:55:49.443Z,21.95
2022-08-20T05:58:22.653Z,21.15
2022-08-20T06:00:54.381Z,23.05
2022-08-20T06:03:41.382Z,22.55
2022-08-20T06:06:17.989Z,23.42
2022-08-20T06:08:58.688Z,23.38
2022-08-20T06:11:27.285Z,23.20
2022-08-20T06:13:55.937Z,22.27
2022-08-20T06:16:29.075Z,22.42
2022-08-20T06:18:58.104Z,22.63
2022-08-20T06:21:26.767Z,23.15
2022-08-20T06:23:57.276Z,23.15
2022-08-20T06:26:30.391Z,24.75
2022-08-20T06:29:00.136Z,23.75
2022-08-20T06:31:30.254Z,21.80
2022-08-20T06:33:58.973Z,19.58
2022-08-20T06:36:27.469Z,19.35
2022-08-20T06:38:58.280Z,20.55
2022-08-20T06:41:35.730Z,19.77
2022-08-20T06:44:06.469Z,19.75
2022-08-20T06:46:37.814Z,20.85
2022-08-20T06:49:07.412Z,19.77
2022-08-20T06:51:37.992Z,20.60
2022-08-20T06:54:08.858Z,19.95
2022-08-20T06:56:37.650Z,20.15
2022-08-20T06:59:05.992Z,21.15
2022-08-20T07:01:36.273Z,20.00
2022-08-20T07:04:05.543Z,19.33
2022-08-20T07:06:34.499Z,19.55
2022-08-20T07:09:02.879Z,18.70
2022-08-20T07:11:31.314Z,18.80
2022-08-20T07:13:59.812Z,19.65
2022-08-20T07:16:28.801Z,19.60
2022-08-20T07:18:59.477Z,20.33
2022-08-20T07:21:27.969Z,17.63
2022-08-20T07:23:56.357Z,18.90
2022-08-20T07:26:25.077Z,19.20
2022-08-20T07:28:54.449Z,17.23
2022-08-20T07:31:42.195Z,17.30
2022-08-20T07:34:13.921Z,18.83
2022-08-20T07:36:43.927Z,17.80
2022-08-20T07:39:12.628Z,17.95
2022-08-20T07:41:41.034Z,17.42
2022-08-20T07:44:09.510Z,18.23
2022-08-20T07:46:38.021Z,18.20
2022-08-20T07:49:09.994Z,18.80
2022-08-20T07:51:40.639Z,19.58
2022-08-20T07:54:09.292Z,18.30
2022-08-20T07:56:37.830Z,19.00
2022-08-20T07:59:06.621Z,19.40
2022-08-20T08:01:35.228Z,17.92
2022-08-20T08:04:04.760Z,16.15
2022-08-20T08:06:33.941Z,16.98
2022-08-20T08:09:14.158Z,16.90
2022-08-20T08:11:50.339Z,15.00
2022-08-20T08:14:26.845Z,15.88
2022-08-20T08:16:58.082Z,15.48
2022-08-20T08:19:28.711Z,14.85
2022-08-20T08:21:58.722Z,16.13
2022-08-20T08:24:29.016Z,14.40
2022-08-20T08:26:57.896Z,14.05
2022-08-20T08:29:26.585Z,14.57
2022-08-20T08:31:54.958Z,12.88
2022-08-20T08:34:25.485Z,12.13
2022-08-20T08:36:54.087Z,13.15
2022-08-20T08:39:24.431Z,11.80
2022-08-20T08:42:26.029Z,12.15
2022-08-20T08:44:55.532Z,12.18
2022-08-20T08:47:30.164Z,11.90
2022-08-20T08:49:59.537Z,11.02
2022-08-20T08:52:33.136Z,11.98
2022-08-20T08:55:07.675Z,11.05
2022-08-20T08:57:37.498Z,12.07
2022-08-20T09:00:13.647Z,10.05
2022-08-20T09:02:54.261Z,11.77
2022-08-20T09:05:28.545Z,11.38
2022-08-20T09:07:57.361Z,10.35
2022-08-20T09:10:25.821Z,11.63
2022-08-20T09:12:55.851Z,11.05
2022-08-20T09:15:25.918Z,11.02
2022-08-20T09:17:54.369Z,11.77
2022-08-20T09:20:22.957Z,12.13
2022-08-20T09:22:56.029Z,12.15
2022-08-20T09:25:24.941Z,12.45
2022-08-20T09:27:53.519Z,10.77
2022-08-20T09:30:24.638Z,12.27
2022-08-20T09:32:53.452Z,11.50
2022-08-20T09:35:22.456Z,10.90
2022-08-20T09:37:52.728Z,11.57
2022-08-20T09:40:21.668Z,11.65
2022-08-20T09:42:51.965Z,11.07
2022-08-20T09:45:21.895Z,12.57
2022-08-20T09:47:56.239Z,11.45
2022-08-20T09:50:26.302Z,12.77
2022-08-20T09:52:56.883Z,10.63
2022-08-20T09:55:34.522Z,12.07
2022-08-20T09:58:07.380Z,11.02
2022-08-20T10:00:35.801Z,10.63
2022-08-20T10:03:05.753Z,11.02
2022-08-20T10:05:34.095Z,11.05
2022-08-20T10:08:06.480Z,11.10
2022-08-20T10:10:35.528Z,11.73
2022-08-20T10:13:04.367Z,11.63
2022-08-20T10:15:33.175Z,11.38
2022-08-20T10:18:07.814Z,11.57
2022-08-20T10:20:36.920Z,11.40
2022-08-20T10:23:06.381Z,13.63
2022-08-20T10:25:35.069Z,10.90
2022-08-20T10:28:03.689Z,11.18
2022-08-20T10:30:32.232Z,10.35
2022-08-20T10:33:00.850Z,10.90
2022-08-20T10:35:30.692Z,12.55
2022-08-20T10:37:59.178Z,11.32
2022-08-20T10:40:27.843Z,13.15
2022-08-20T10:42:56.586Z,13.35
2022-08-20T10:45:25.965Z,11.30
2022-08-20T10:47:54.415Z,12.05
2022-08-20T10:50:22.906Z,13.50
2022-08-20T10:52:52.983Z,11.10
2022-08-20T10:55:22.256Z,11.70
2022-08-20T10:57:50.999Z,11.27
2022-08-20T11:00:19.595Z,12.73
2022-08-20T11:02:48.040Z,11.85
2022-08-20T11:05:16.393Z,15.18
2022-08-20T11:07:55.411Z,11.68
2022-08-20T11:10:29.166Z,11.50
2022-08-20T11:12:57.823Z,12.63
2022-08-20T11:15:27.023Z,13.27
2022-08-20T11:17:56.446Z,13.20
2022-08-20T11:20:26.487Z,12.18
2022-08-20T11:22:55.537Z,10.80
2022-08-20T11:25:27.272Z,10.10
2022-08-20T11:27:58.593Z,9.45
2022-08-20T11:30:30.260Z,13.37
2022-08-20T11:33:00.261Z,11.60
2022-08-20T11:35:48.887Z,10.23
2022-08-20T11:38:19.090Z,12.80
2022-08-20T11:40:48.919Z,12.55
2022-08-20T11:43:18.345Z,13.38
2022-08-20T11:45:51.261Z,11.80
2022-08-20T11:48:19.812Z,10.45
2022-08-20T11:50:49.599Z,10.38
2022-08-20T11:53:18.260Z,10.95
2022-08-20T11:55:49.007Z,9.23
2022-08-20T11:58:17.408Z,10.52
2022-08-20T12:00:46.177Z,10.07
2022-08-20T12:03:14.893Z,8.93
2022-08-20T12:05:47.522Z,8.88
2022-08-20T12:08:25.221Z,8.23
2022-08-20T12:11:00.499Z,8.05
2022-08-20T12:13:48.117Z,8.95
2022-08-20T12:16:19.267Z,8.30
2022-08-20T12:18:48.752Z,7.20
2022-08-20T12:21:17.929Z,7.72
2022-08-20T12:23:46.984Z,6.22
2022-08-20T12:26:17.907Z,6.75
2022-08-20T12:28:46.705Z,6.23
2022-08-20T12:31:15.005Z,6.35
2022-08-20T12:33:43.635Z,5.25
2022-08-20T12:36:12.353Z,5.15
2022-08-20T12:38:41.051Z,6.47
2022-08-20T12:41:09.432Z,6.03
2022-08-20T12:43:39.266Z,6.80
2022-08-20T12:46:07.948Z,4.78
2022-08-20T12:48:36.276Z,5.60
2022-08-20T12:51:04.784Z,4.85
2022-08-20T12:53:33.413Z,4.57
2022-08-20T12:56:06.016Z,4.88
2022-08-20T12:58:34.677Z,4.22
2022-08-20T13:01:04.512Z,4.50
2022-08-20T13:03:32.952Z,5.82
2022-08-20T13:06:09.551Z,4.85
2022-08-20T13:08:37.887Z,5.22
2022-08-20T13:11:06.379Z,4.55
2022-08-20T13:13:34.759Z,4.43
2022-08-20T13:16:05.688Z,4.57
2022-08-20T13:18:34.113Z,4.22
2022-08-20T13:21:02.956Z,4.10
2022-08-20T13:23:31.517Z,3.50
2022-08-20T13:25:59.840Z,3.97
2022-08-20T13:28:28.364Z,4.30
2022-08-20T13:30:57.034Z,3.60
2022-08-20T13:33:27.375Z,4.18
2022-08-20T13:35:56.068Z,4.78
2022-08-20T13:38:25.388Z,3.92
2022-08-20T13:40:53.930Z,4.45
2022-08-20T13:43:22.248Z,4.05
2022-08-20T13:45:50.623Z,4.07
2022-08-20T13:48:19.217Z,4.03
2022-08-20T13:50:49.093Z,3.65
2022-08-20T13:53:18.240Z,3.40
2022-08-20T13:55:47.135Z,3.45
2022-08-20T13:58:15.696Z,3.20
2022-08-20T14:00:44.049Z,3.55
2022-08-20T14:03:13.840Z,3.45
2022-08-20T14:05:49.792Z,3.10
2022-08-20T14:08:21.802Z,4.05
2022-08-20T14:13:22.697Z,2.97
2022-08-20T14:15:51.837Z,3.45
2022-08-20T14:18:20.763Z,3.22
2022-08-20T14:20:51.209Z,3.80
2022-08-20T14:23:19.708Z,3.97
2022-08-20T14:25:50.139Z,3.40
2022-08-20T14:28:21.609Z,3.65
2022-08-20T14:30:52.593Z,3.30
2022-08-20T14:33:22.759Z,3.47
2022-08-20T14:35:52.907Z,3.90
2022-08-20T14:38:21.865Z,4.00
2022-08-20T14:40:50.924Z,4.38
2022-08-20T14:43:19.467Z,3.58
2022-08-20T14:45:47.796Z,3.58
2022-08-20T14:48:16.351Z,4.03
2022-08-20T14:50:44.898Z,4.07
2022-08-20T14:53:14.765Z,3.72
2022-08-20T14:55:43.688Z,2.90
2022-08-20T14:58:14.995Z,3.83
2022-08-20T15:00:45.201Z,3.80
2022-08-20T15:03:14.313Z,3.83
2022-08-20T15:05:42.894Z,3.30
2022-08-20T15:08:14.021Z,3.47
2022-08-20T15:10:43.312Z,3.53
2022-08-20T15:13:11.931Z,3.25
2022-08-20T15:15:40.534Z,2.65
2022-08-20T15:18:09.945Z,3.47
2022-08-20T15:20:39.217Z,4.22
2022-08-20T15:23:08.146Z,3.22
2022-08-20T15:25:38.471Z,3.45
2022-08-20T15:28:10.137Z,2.85
2022-08-20T15:30:41.819Z,2.67
2022-08-20T15:33:10.778Z,3.78
2022-08-20T15:35:39.099Z,2.60
2022-08-20T15:38:07.533Z,2.65
2022-08-20T15:40:37.809Z,3.50
2022-08-20T15:43:06.837Z,3.00
2022-08-20T15:45:37.159Z,3.40
2022-08-20T15:48:14.078Z,3.67
2022-08-20T15:51:23.415Z,4.05
2022-08-20T15:54:02.678Z,3.38
2022-08-20T15:56:53.946Z,3.67
2022-08-20T15:59:40.258Z,3.45
2022-08-20T16:02:26.113Z,3.08
2022-08-20T16:05:20.277Z,3.55
2022-08-20T16:08:02.079Z,3.83
2022-08-20T16:10:45.110Z,3.10
2022-08-20T16:13:38.385Z,3.35
2022-08-20T16:16:12.116Z,3.50
2022-08-20T16:18:42.049Z,3.03
2022-08-20T16:21:14.058Z,2.95
2022-08-20T16:23:45.032Z,2.97
2022-08-20T16:26:33.500Z,2.88
2022-08-20T16:29:11.611Z,3.13
2022-08-20T16:31:48.398Z,3.00
2022-08-20T16:34:34.100Z,2.92
2022-08-20T16:37:17.043Z,2.83
2022-08-20T16:42:21.919Z,3.05
2022-08-20T16:44:55.666Z,2.70
2022-08-20T16:47:30.918Z,3.22
2022-08-20T16:50:04.825Z,2.50
2022-08-20T16:52:33.470Z,2.70
2022-08-20T16:55:01.908Z,2.20
2022-08-20T16:57:30.788Z,2.28
2022-08-20T17:00:13.557Z,2.95
2022-08-20T17:02:54.497Z,2.30
2022-08-20T17:05:24.794Z,2.47
2022-08-20T17:08:00.044Z,2.78
2022-08-20T17:10:32.736Z,2.40
2022-08-20T17:13:06.653Z,2.55
2022-08-20T17:15:37.209Z,2.75
2022-08-20T17:18:26.248Z,2.38
2022-08-20T17:21:00.521Z,3.03
2022-08-20T17:23:29.622Z,2.42
2022-08-20T17:26:01.391Z,2.13
2022-08-20T17:28:34.975Z,2.47
2022-08-20T17:31:05.334Z,2.25
2022-08-20T17:33:40.317Z,2.35
2022-08-20T17:36:12.078Z,2.50
2022-08-20T17:38:48.127Z,2.03
2022-08-20T17:41:22.679Z,2.70
2022-08-20T17:44:01.780Z,2.67
2022-08-20T17:46:37.471Z,2.42
2022-08-20T17:49:10.845Z,2.70
2022-08-20T17:51:46.288Z,2.92
2022-08-20T17:54:22.708Z,2.58
2022-08-20T17:56:59.302Z,2.83
2022-08-20T18:00:01.604Z,2.17
2022-08-20T18:02:23.913Z,2.80
2022-08-20T18:04:54.608Z,2.50
2022-08-20T18:07:28.400Z,2.65
2022-08-20T18:10:04.001Z,2.85
2022-08-20T18:12:38.261Z,3.20
2022-08-20T18:15:14.819Z,3.13
2022-08-20T18:18:17.988Z,3.03
2022-08-20T18:21:41.596Z,2.75
2022-08-20T18:24:16.470Z,3.25
2022-08-20T18:26:50.309Z,2.90
2022-08-20T18:29:27.598Z,3.08
2022-08-20T18:32:00.176Z,2.90
2022-08-20T18:34:41.028Z,2.90
2022-08-20T18:37:26.191Z,3.20
2022-08-20T18:40:05.944Z,3.45
2022-08-20T18:42:37.648Z,2.70
2022-08-20T18:45:08.544Z,3.27
2022-08-20T18:47:47.140Z,3.33
2022-08-20T18:50:25.793Z,3.25
2022-08-20T18:53:10.990Z,3.10
2022-08-20T18:55:42.706Z,3.00
2022-08-20T18:58:14.604Z,2.85
2022-08-20T19:00:45.935Z,3.33
2022-08-20T19:03:21.899Z,3.60
2022-08-20T19:06:14.558Z,4.65
2022-08-20T19:08:50.533Z,4.30
2022-08-20T19:11:44.136Z,3.90
2022-08-20T19:14:45.822Z,3.22
2022-08-20T19:17:20.937Z,3.45
2022-08-20T19:20:01.557Z,3.05
2022-08-20T19:22:33.715Z,4.88
2022-08-20T19:25:02.617Z,6.85
2022-08-20T19:27:31.829Z,46.72
2022-08-20T19:30:00.315Z,49.25
2022-08-20T19:32:32.842Z,52.22
2022-08-20T19:35:06.106Z,54.25
2022-08-20T19:37:51.558Z,25.00
2022-08-20T19:40:28.280Z,30.48
2022-08-20T19:42:59.761Z,7.18
2022-08-20T19:45:38.280Z,4.17
2022-08-20T19:48:32.103Z,4.78
2022-08-20T19:51:09.787Z,6.78
2022-08-20T19:53:46.913Z,7.55
2022-08-20T19:56:19.862Z,7.00
2022-08-20T19:59:00.954Z,6.18
2022-08-20T20:01:30.201Z,5.72
2022-08-20T20:04:02.610Z,5.10
2022-08-20T20:09:09.250Z,4.72
2022-08-20T20:11:47.336Z,4.65
2022-08-20T20:14:20.985Z,4.85
2022-08-20T20:16:52.442Z,4.47
2022-08-20T20:19:28.585Z,4.67
2022-08-20T20:22:19.189Z,5.03
2022-08-20T20:25:06.393Z,4.53
2022-08-20T20:27:36.475Z,4.65
2022-08-20T20:30:10.480Z,4.20
2022-08-20T20:32:50.993Z,4.18
2022-08-20T20:35:29.432Z,4.25
2022-08-20T20:38:02.040Z,4.93
2022-08-20T20:40:43.902Z,4.50
2022-08-20T20:43:26.080Z,4.93
2022-08-20T20:46:08.129Z,4.32
2022-08-20T20:48:48.314Z,4.82
2022-08-20T20:51:23.292Z,4.18
2022-08-20T20:53:55.075Z,5.15
2022-08-20T20:56:36.892Z,5.30
2022-08-20T20:59:08.647Z,5.43
2022-08-20T21:01:48.291Z,5.78
2022-08-20T21:04:16.885Z,6.13
2022-08-20T21:06:46.017Z,5.93
2022-08-20T21:09:15.071Z,5.28
2022-08-20T21:11:45.347Z,5.50
2022-08-20T21:14:13.885Z,4.78
2022-08-20T21:16:42.663Z,5.53
2022-08-20T21:19:12.115Z,4.65
2022-08-20T21:21:40.904Z,5.18
2022-08-20T21:24:09.866Z,4.93
2022-08-20T21:26:38.848Z,5.30
2022-08-20T21:29:12.507Z,6.45
2022-08-20T21:31:45.217Z,5.57
2022-08-20T21:34:16.485Z,5.82
2022-08-20T21:36:46.592Z,5.68
2022-08-20T21:39:15.660Z,5.30
2022-08-20T21:41:45.712Z,4.97
2022-08-20T21:44:21.558Z,5.10
2022-08-20T21:46:50.405Z,4.97
2022-08-20T21:49:19.650Z,4.93
2022-08-20T21:51:48.752Z,4.50
2022-08-20T21:54:17.705Z,3.90
2022-08-20T21:56:50.619Z,4.18
2022-08-20T21:59:22.880Z,3.85
2022-08-20T22:01:52.661Z,4.78
2022-08-20T22:04:21.342Z,4.53
2022-08-20T22:06:50.069Z,4.50
2022-08-20T22:09:18.629Z,4.53
2022-08-20T22:11:53.873Z,4.78
2022-08-20T22:14:24.991Z,4.20
2022-08-20T22:16:53.314Z,4.25
2022-08-20T22:19:22.002Z,4.40
2022-08-20T22:21:51.869Z,4.63
2022-08-20T22:24:21.086Z,4.43
2022-08-20T22:26:49.571Z,4.43
2022-08-20T22:29:18.205Z,4.05
2022-08-20T22:31:48.517Z,4.03
2022-08-20T22:34:20.247Z,4.13
2022-08-20T22:36:49.117Z,3.90
2022-08-20T22:39:18.013Z,3.92
2022-08-20T22:41:46.329Z,4.00
2022-08-20T22:44:14.675Z,3.80
2022-08-20T22:46:48.835Z,3.90
2022-08-20T22:49:27.827Z,4.40
2022-08-20T22:51:56.665Z,3.97
2022-08-20T22:54:26.445Z,4.25
2022-08-20T22:56:56.326Z,3.80
2022-08-20T22:59:26.105Z,3.60
2022-08-20T23:01:55.235Z,3.70
2022-08-20T23:04:29.765Z,3.88
2022-08-20T23:06:59.045Z,4.15
2022-08-20T23:09:28.701Z,3.85
2022-08-20T23:11:58.757Z,4.10
2022-08-20T23:14:27.454Z,3.88
2022-08-20T23:17:03.793Z,4.30
2022-08-20T23:19:36.257Z,3.85
2022-08-20T23:24:33.364Z,4.93
2022-08-20T23:27:01.926Z,3.60
2022-08-20T23:29:30.937Z,3.80
2022-08-20T23:32:01.454Z,3.63
2022-08-20T23:34:29.928Z,3.65
2022-08-20T23:37:00.901Z,3.47
2022-08-20T23:39:31.337Z,3.47
2022-08-20T23:42:01.242Z,3.90
2022-08-20T23:44:30.657Z,3.63
2022-08-20T23:47:03.425Z,3.60
2022-08-20T23:49:33.575Z,4.00
2022-08-20T23:52:03.419Z,3.78
2022-08-20T23:54:33.545Z,3.83
2022-08-20T23:57:02.002Z,3.90
2022-08-20T23:59:37.234Z,3.75
